Pompano Beach, FL (33060)

9:21 AM EDT on August 05, 2015 (GMT -0400)
Cypress Lake Estates 908 Club | | Change Station
CLOSE
Current Station
Personal Weather Station
Location: Pompano Beach, FL
Elevation: 10 ft
Nearby Weather Stations

Elev 10 ft 26.22 °N, 80.11 °W | Updated 6 seconds ago

Scattered Clouds
Scattered Clouds
89.0 °F
Feels Like 106 °F
N
0.0
Wind Variable Wind from ESE
Gusts 1.0 mph

Today
High -- | Low -- °F
--% Chance of Precip.
Yesterday
High -- | Low -- °F
Precip. -- in
6:47 AM 8:04 PM
Waning Gibbous, 67% visible
Pressure 30.11 in
Visibility 10.0 miles
Clouds Scattered Clouds 2300 ft
Scattered Clouds 3600 ft
Heat Index 106 °F
Dew Point 80 °F
Humidity 74%
Rainfall 0.00 in
Snow Depth Not available.
UV 2 out of 12
Pollen 1.90 out of 12
Air Quality Not available.
Flu Activity Not available.
METAR KPMP 051253Z 04003KT 10SM SCT023 SCT036 30/24 A3011 RMK AO2 SLP195 T03000244

More Conditions Fewer Conditions

Pressure 30.11 in
Visibility 10.0 miles
Clouds Scattered Clouds 2300 ft
Scattered Clouds 3600 ft
Heat Index 106 °F
Dew Point 80 °F
Humidity 74%
Rainfall 0.00 in
Snow Depth Not available.
UV 2 out of 12
Pollen 1.90 out of 12
Air Quality Not available.
Flu Activity Not available.
METAR KPMP 051253Z 04003KT 10SM SCT023 SCT036 30/24 A3011 RMK AO2 SLP195 T03000244

More Conditions Fewer Conditions

10-Day Weather Forecast

×

Almanac

Astronomy

Aug. 05, 2015 Rise Set
Actual Time
Civil Twilight
Nautical Twilight
Astronomical Twilight
Moon
Length of Visible Light
Length of Day
Tomorrow will be .
, % of the Moon is Illuminated

Today's Extremes

State Highs State Lows

Community

WunderPhotos

Upload Photos

1,844,185 photos uploaded!

WunderBlogs® & News

Nearby

Air Quality

  Air Quality AQ Index Pollutant
Not available.

Snow Depth

Station Depth Elevation

Earthquake Activity

City Distance Mag. Time & Date
Minimum magnitude displayed is 2.5.

Coastal Water Temperatures

Place Temperature

Stations

Nearby Weather Stations

Station Location Temp. Windchill Dew Point Humidity Wind Precip. Elev Updated Type